Elm Springs, South Dakota
Current Conditions -  °F | °C
As of 2:58 AM on Wednesday 22 Oct 2014 (Local Time) from KRCA Reporting Station
Scattered Clouds Scattered Clouds  
Wind Chill: 58°   Ceiling: Unl
Heat Index: 58°   Visibility: 10mi
Dew Point: 40°   Wind: 18mph
Humidity: 51%   Direction: 360°N
Pressure: 29.87"   Gusts: 25mph
Location:  44.34°N, 102.4°W
Report Text: KRCA 220858Z 36016G22KT 10SM SCT100 15/05 A2987 RMK AO2A PK WND 34030/00 SLP094 T01460046 52030 $
Loading
Personal Weather Stations






























Interactive Weather Map
Tropical Storm Tracking
New forecast layout! Learn more

10-Day Weather Forecast

Advertisements
Track Severe Weather on mobile